Time;durP1;ratioP1;P1;durP2;ratioP2;P2;SDS_P1;SDS_P2;PMS_P1;PMS_P2;Temp;Humidity;BMP_temperature;BMP_pressure;BME280_temperature;BME280_humidity;BME280_pressure;Samples;Min_cycle;Max_cycle;Signal;HPM_P1;HPM_P2
2022/08/12 00:44:43;;;;;;;13.75;9.50;;;20.00;99.90;;;;;;5074276;28;20055;-71
2022/08/12 00:47:11;;;;;;;14.37;9.80;;;19.70;99.90;;;;;;5073022;28;20048;-72
2022/08/12 00:49:38;;;;;;;12.32;10.00;;;19.70;99.90;;;;;;5074090;28;20119;-71
2022/08/12 00:52:10;;;;;;;12.68;10.07;;;19.90;99.90;;;;;;5073266;28;20119;-71
2022/08/12 00:54:51;;;;;;;14.80;9.73;;;19.50;99.90;;;;;;5072515;28;20384;-72
2022/08/12 00:57:18;;;;;;;12.27;9.35;;;19.60;99.90;;;;;;5073171;28;20114;-72
2022/08/12 00:59:50;;;;;;;14.52;9.32;;;19.60;99.90;;;;;;5072744;28;20045;-71
2022/08/12 01:02:28;;;;;;;13.38;9.50;;;19.80;99.90;;;;;;5072782;28;20052;-72
2022/08/12 01:13:27;;;;;;;9.80;8.02;;;19.60;99.90;;;;;;5072531;28;20048;-71
2022/08/12 01:16:01;;;;;;;10.85;8.30;;;19.70;99.90;;;;;;5073603;28;20501;-72
2022/08/12 01:18:31;;;;;;;9.88;8.32;;;19.70;99.90;;;;;;5073735;28;20493;-71
2022/08/12 01:21:03;;;;;;;10.43;8.73;;;19.50;99.90;;;;;;5073643;28;20561;-71
2022/08/12 01:23:40;;;;;;;11.77;8.45;;;20.20;99.90;;;;;;5072494;28;20520;-71
2022/08/12 01:26:15;;;;;;;12.52;7.78;;;19.50;99.90;;;;;;5073422;28;20097;-71
2022/08/12 01:28:42;;;;;;;11.18;8.48;;;20.10;99.90;;;;;;5073545;28;20119;-71
2022/08/12 01:31:10;;;;;;;12.27;8.20;;;19.40;99.90;;;;;;5072145;28;20037;-72
2022/08/12 01:34:08;;;;;;;10.48;8.32;;;19.40;99.90;;;;;;5072256;28;20048;-71
2022/08/12 01:36:53;;;;;;;11.85;8.13;;;19.30;99.90;;;;;;5072096;28;20043;-71
2022/08/12 01:39:27;;;;;;;10.07;7.28;;;19.50;99.90;;;;;;5071959;28;20041;-71
2022/08/12 01:41:57;;;;;;;11.23;8.90;;;19.40;99.90;;;;;;5073491;28;20375;-72
2022/08/12 01:44:25;;;;;;;11.00;8.45;;;19.30;99.90;;;;;;5073025;28;20083;-71
2022/08/12 01:47:29;;;;;;;10.40;8.05;;;20.20;99.90;;;;;;5055612;28;20040;-71
2022/08/12 01:50:45;;;;;;;11.18;7.70;;;19.30;99.90;;;;;;5057822;28;20076;-72
2022/08/12 01:53:14;;;;;;;10.93;7.50;;;19.20;99.90;;;;;;5046702;28;20049;-71
2022/08/12 01:55:44;;;;;;;14.70;8.68;;;19.10;99.90;;;;;;5072834;28;20037;-71
2022/08/12 01:58:25;;;;;;;12.70;7.43;;;19.20;99.90;;;;;;5071600;28;20044;-71
2022/08/12 02:01:02;;;;;;;9.93;6.88;;;18.90;99.90;;;;;;5073102;28;20044;-71
2022/08/12 02:13:20;;;;;;;8.68;6.40;;;19.10;99.90;;;;;;5072636;28;20501;-72
2022/08/12 02:16:10;;;;;;;11.20;6.78;;;18.90;99.90;;;;;;5072428;28;20039;-71
2022/08/12 02:19:13;;;;;;;10.98;6.78;;;18.90;99.90;;;;;;5071267;28;20043;-71
2022/08/12 02:21:44;;;;;;;12.23;6.60;;;18.80;99.90;;;;;;5072553;28;20094;-71
2022/08/12 02:24:14;;;;;;;8.02;6.15;;;19.40;99.90;;;;;;5070834;28;20041;-71
2022/08/12 02:26:43;;;;;;;9.40;7.05;;;19.00;99.90;;;;;;5071208;28;20460;-71
2022/08/12 02:29:11;;;;;;;8.90;6.82;;;19.10;99.90;;;;;;5070958;28;20052;-71
2022/08/12 02:31:38;;;;;;;11.88;7.28;;;19.30;99.90;;;;;;5071490;28;20396;-71
2022/08/12 02:34:05;;;;;;;10.38;7.25;;;18.60;99.90;;;;;;5070405;28;20033;-71
2022/08/12 02:36:33;;;;;;;9.63;6.95;;;19.20;99.90;;;;;;5071116;28;20048;-71
2022/08/12 02:38:59;;;;;;;8.75;6.70;;;18.60;99.90;;;;;;5070914;28;20048;-72
2022/08/12 02:41:27;;;;;;;9.65;7.40;;;18.90;99.90;;;;;;5072191;28;20066;-72
2022/08/12 02:43:59;;;;;;;13.35;7.00;;;19.30;99.90;;;;;;5071822;28;20050;-71
2022/08/12 02:46:29;;;;;;;8.65;6.88;;;19.00;99.90;;;;;;5072372;28;20047;-71
2022/08/12 02:49:24;;;;;;;8.50;6.82;;;18.70;99.90;;;;;;5071221;28;20569;-71
2022/08/12 02:51:50;;;;;;;9.60;6.55;;;18.70;99.90;;;;;;5068058;28;20049;-71
2022/08/12 02:54:16;;;;;;;10.35;7.32;;;18.60;99.90;;;;;;5070358;28;20505;-71
2022/08/12 02:56:42;;;;;;;9.32;6.90;;;18.80;99.90;;;;;;5070625;28;20068;-71
2022/08/12 02:59:15;;;;;;;12.70;7.25;;;18.90;99.90;;;;;;5070705;28;20159;-71
2022/08/12 03:01:46;;;;;;;9.70;7.28;;;18.50;99.90;;;;;;5053961;28;20052;-71
2022/08/12 03:04:16;;;;;;;12.20;8.02;;;18.50;99.90;;;;;;5071638;28;20170;-71
2022/08/12 03:06:50;;;;;;;10.68;7.38;;;18.50;99.90;;;;;;5070773;28;20127;-71
2022/08/12 03:09:17;;;;;;;13.93;8.27;;;18.70;99.90;;;;;;5071908;28;20509;-71
2022/08/12 03:11:55;;;;;;;13.80;6.85;;;19.80;99.90;;;;;;5070544;28;20047;-71
2022/08/12 03:14:27;;;;;;;11.60;7.38;;;18.70;99.90;;;;;;5071571;28;20041;-71
2022/08/12 03:17:19;;;;;;;9.40;7.35;;;18.40;99.90;;;;;;5070828;28;20394;-71
2022/08/12 03:19:45;;;;;;;9.98;7.60;;;18.70;99.90;;;;;;5050301;28;20494;-71
2022/08/12 03:22:13;;;;;;;8.48;7.55;;;18.70;99.90;;;;;;5070442;28;20041;-71
2022/08/12 03:24:43;;;;;;;10.23;7.07;;;18.60;99.90;;;;;;5069984;28;20052;-71
2022/08/12 03:27:12;;;;;;;10.55;8.00;;;18.70;99.90;;;;;;5070394;28;20032;-71
2022/08/12 03:29:40;;;;;;;10.93;8.13;;;18.60;99.90;;;;;;5071511;28;20052;-71
2022/08/12 03:32:06;;;;;;;15.07;8.35;;;18.50;99.90;;;;;;5070577;28;20071;-71
2022/08/12 03:34:34;;;;;;;11.20;8.05;;;18.40;99.90;;;;;;5053478;28;20041;-71
2022/08/12 03:37:02;;;;;;;12.43;8.35;;;19.60;99.90;;;;;;5070321;28;20040;-71
2022/08/12 03:42:40;;;;;;;13.50;8.52;;;18.40;99.90;;;;;;5071450;28;20525;-71
2022/08/12 04:01:56;;;;;;;9.70;8.25;;;19.80;99.90;;;;;;5082970;28;20056;-71
2022/08/12 04:04:33;;;;;;;10.95;8.10;;;18.40;99.90;;;;;;5066010;28;20040;-71
2022/08/12 04:07:00;;;;;;;10.00;8.20;;;18.40;99.90;;;;;;5076815;28;20076;-71
2022/08/12 04:09:27;;;;;;;9.68;7.93;;;18.90;99.90;;;;;;5075778;28;20387;-71
2022/08/12 04:14:36;;;;;;;12.98;8.95;;;18.30;99.90;;;;;;5075053;28;20068;-71
2022/08/12 04:17:03;;;;;;;12.43;7.97;;;19.10;99.90;;;;;;5058764;28;20076;-71
2022/08/12 04:19:29;;;;;;;16.83;8.70;;;18.20;99.90;;;;;;5075667;28;20052;-71
2022/08/12 04:21:56;;;;;;;12.15;7.78;;;18.40;99.90;;;;;;5076476;28;20036;-71
2022/08/12 04:24:25;;;;;;;11.70;8.65;;;18.50;99.90;;;;;;5076356;28;20040;-71
2022/08/12 04:26:52;;;;;;;20.58;8.63;;;18.90;99.90;;;;;;5075295;28;20040;-71
2022/08/12 04:29:22;;;;;;;11.35;8.52;;;18.80;99.90;;;;;;5074085;28;20089;-71
2022/08/12 04:31:48;;;;;;;14.77;9.45;;;18.30;99.90;;;;;;5074079;28;20059;-71
2022/08/12 04:34:15;;;;;;;14.70;8.63;;;18.50;99.90;;;;;;5075133;28;20089;-71
2022/08/12 04:36:42;;;;;;;16.20;8.27;;;19.50;99.90;;;;;;5079254;28;20044;-71
2022/08/12 04:39:10;;;;;;;11.30;8.52;;;19.20;99.90;;;;;;5082147;28;20402;-71
2022/08/12 04:41:37;;;;;;;13.10;7.78;;;18.10;99.90;;;;;;5085256;28;20047;-71
2022/08/12 04:44:04;;;;;;;14.23;7.43;;;18.20;99.90;;;;;;5082890;28;20123;-71
2022/08/12 04:46:30;;;;;;;8.93;7.53;;;18.30;99.90;;;;;;5060202;28;20044;-71
2022/08/12 04:48:56;;;;;;;14.50;8.73;;;17.90;99.90;;;;;;5075847;28;20494;-71
2022/08/12 04:51:22;;;;;;;16.33;7.55;;;18.10;99.90;;;;;;5080736;28;20036;-71
2022/08/12 04:53:48;;;;;;;11.23;7.80;;;18.20;99.90;;;;;;5084725;28;20037;-71
2022/08/12 04:56:15;;;;;;;11.00;7.53;;;18.00;99.90;;;;;;5079636;28;20059;-71
2022/08/12 04:58:41;;;;;;;11.80;7.90;;;18.50;99.90;;;;;;5067248;28;20040;-71
2022/08/12 05:01:08;;;;;;;10.15;7.35;;;18.90;99.90;;;;;;5079464;28;20078;-71
2022/08/12 05:03:34;;;;;;;13.55;7.90;;;18.40;99.90;;;;;;5074867;28;20033;-71
2022/08/12 05:06:00;;;;;;;13.27;7.72;;;18.30;99.90;;;;;;5075141;28;20049;-71
2022/08/12 05:08:26;;;;;;;10.82;7.90;;;18.40;99.90;;;;;;5073429;28;20049;-71
2022/08/12 05:10:53;;;;;;;11.98;7.25;;;18.20;99.90;;;;;;5073518;28;20075;-71
2022/08/12 05:13:24;;;;;;;12.02;7.60;;;19.30;99.90;;;;;;5074246;28;20036;-71
2022/08/12 05:15:50;;;;;;;12.50;7.43;;;18.30;99.90;;;;;;5073766;28;20059;-71
2022/08/12 05:18:15;;;;;;;8.30;7.10;;;18.60;99.90;;;;;;5073192;28;20467;-71
2022/08/12 05:20:42;;;;;;;12.57;7.35;;;18.60;99.90;;;;;;5073305;28;20072;-71
2022/08/12 05:23:14;;;;;;;11.10;7.47;;;18.60;99.90;;;;;;5072945;28;20044;-71
2022/08/12 05:25:50;;;;;;;10.98;7.05;;;18.50;99.90;;;;;;5075170;28;20059;-71
2022/08/12 05:28:17;;;;;;;6.75;5.90;;;18.90;99.90;;;;;;5072418;28;20086;-71
2022/08/12 05:30:44;;;;;;;9.25;6.53;;;18.70;99.90;;;;;;5073561;28;20383;-71
2022/08/12 05:33:11;;;;;;;11.85;6.53;;;18.80;99.90;;;;;;5072926;28;20078;-71
2022/08/12 05:35:40;;;;;;;10.65;6.40;;;18.80;99.90;;;;;;5073785;28;20119;-71
2022/08/12 05:40:52;;;;;;;11.18;6.32;;;18.90;99.90;;;;;;5073549;28;20049;-71
2022/08/12 05:43:18;;;;;;;10.13;6.05;;;18.80;99.90;;;;;;5073612;28;20387;-71
2022/08/12 05:45:45;;;;;;;9.55;6.53;;;19.00;99.90;;;;;;5073141;28;20514;-71
2022/08/12 05:48:11;;;;;;;9.85;6.60;;;19.00;99.90;;;;;;5071993;28;20040;-71
2022/08/12 05:50:37;;;;;;;10.60;5.50;;;19.10;99.90;;;;;;5073366;28;20062;-71
2022/08/12 05:53:05;;;;;;;7.40;5.97;;;19.00;99.90;;;;;;5073030;28;20045;-71
2022/08/12 05:55:31;;;;;;;10.15;6.45;;;19.60;99.90;;;;;;5071232;28;20040;-71
2022/08/12 05:57:57;;;;;;;7.38;5.35;;;19.30;99.90;;;;;;5072940;28;20040;-71
2022/08/12 06:00:24;;;;;;;12.85;6.18;;;19.40;99.90;;;;;;5073150;28;20456;-71
2022/08/12 06:02:59;;;;;;;7.57;6.57;;;19.30;99.90;;;;;;5055003;28;20052;-71
2022/08/12 06:05:36;;;;;;;10.30;5.70;;;20.20;99.90;;;;;;5071415;28;20041;-72
2022/08/12 06:08:07;;;;;;;7.70;5.03;;;19.70;99.90;;;;;;5071338;28;20044;-71
2022/08/12 06:10:36;;;;;;;11.50;5.97;;;19.70;99.90;;;;;;5072480;28;20551;-72
2022/08/12 06:13:04;;;;;;;10.38;5.35;;;19.80;99.90;;;;;;5058908;28;20037;-71
2022/08/12 06:15:31;;;;;;;11.10;5.13;;;19.90;99.90;;;;;;5053256;28;20075;-71
2022/08/12 06:18:09;;;;;;;8.93;5.25;;;19.90;99.90;;;;;;5082262;28;20564;-69
2022/08/12 06:20:36;;;;;;;8.40;4.90;;;19.90;99.90;;;;;;5066781;28;20051;-70
2022/08/12 06:23:02;;;;;;;7.10;4.53;;;20.10;99.90;;;;;;5074631;28;20145;-70
2022/08/12 06:25:29;;;;;;;8.70;4.68;;;20.80;99.90;;;;;;5065014;28;20073;-71
2022/08/12 06:27:57;;;;;;;9.05;5.07;;;20.30;99.90;;;;;;5075689;28;20052;-71
2022/08/12 06:30:24;;;;;;;12.80;5.15;;;20.20;99.90;;;;;;5054980;28;20182;-71
2022/08/12 06:32:51;;;;;;;5.93;3.92;;;20.40;99.90;;;;;;5069091;28;20032;-69
2022/08/12 06:35:17;;;;;;;8.18;5.10;;;20.40;99.90;;;;;;5078774;28;20037;-71
2022/08/12 06:37:46;;;;;;;6.03;4.50;;;20.50;99.90;;;;;;5077402;28;20051;-70
2022/08/12 06:40:12;;;;;;;9.45;5.05;;;20.50;99.90;;;;;;5078757;28;20129;-70
2022/08/12 06:42:48;;;;;;;7.97;4.35;;;20.70;99.90;;;;;;5077717;28;20076;-71
2022/08/12 06:45:21;;;;;;;8.13;4.55;;;20.60;99.90;;;;;;5053448;28;20444;-71
2022/08/12 06:47:47;;;;;;;6.57;4.25;;;20.80;99.90;;;;;;5069077;28;20071;-70
2022/08/12 06:50:17;;;;;;;5.50;3.88;;;20.90;99.90;;;;;;5063073;28;20040;-70
2022/08/12 06:52:43;;;;;;;6.78;4.45;;;21.10;99.90;;;;;;5072221;28;20064;-70
2022/08/12 06:55:17;;;;;;;4.53;3.95;;;21.50;99.90;;;;;;5048390;28;20032;-71
2022/08/12 06:57:55;;;;;;;6.28;3.95;;;21.30;99.90;;;;;;5056814;28;20349;-70
2022/08/12 07:00:24;;;;;;;6.28;4.22;;;21.30;99.90;;;;;;5072782;28;20635;-70
2022/08/12 07:02:51;;;;;;;7.65;4.15;;;22.60;99.90;;;;;;5072524;28;20087;-71
2022/08/12 07:05:23;;;;;;;8.98;4.03;;;21.80;99.90;;;;;;5061089;28;20414;-70
2022/08/12 07:07:58;;;;;;;9.90;4.30;;;21.50;99.90;;;;;;5054977;28;20822;-70
2022/08/12 07:10:24;;;;;;;7.63;4.00;;;21.70;99.90;;;;;;5059660;28;20040;-70
2022/08/12 07:12:54;;;;;;;5.43;3.80;;;22.70;99.90;;;;;;5064360;28;20097;-71
2022/08/12 07:15:23;;;;;;;4.43;3.53;;;21.10;99.90;;;;;;5065181;28;20041;-71
2022/08/12 07:17:59;;;;;;;7.30;3.88;;;22.20;99.90;;;;;;5072661;28;20036;-71
2022/08/12 07:20:30;;;;;;;10.40;3.85;;;22.40;99.90;;;;;;5057892;28;20041;-71
2022/08/12 07:22:56;;;;;;;6.38;4.07;;;22.10;99.90;;;;;;5051547;28;20498;-71
2022/08/12 07:25:31;;;;;;;6.82;3.63;;;22.80;99.90;;;;;;5058161;28;20047;-71
2022/08/12 07:28:00;;;;;;;6.15;3.65;;;22.60;99.90;;;;;;5050649;28;20051;-71
2022/08/12 07:30:26;;;;;;;6.72;3.30;;;22.60;99.90;;;;;;5056791;28;20511;-71
2022/08/12 07:32:53;;;;;;;12.00;3.08;;;22.70;99.90;;;;;;5061747;28;20040;-71
2022/08/12 07:35:19;;;;;;;3.53;2.55;;;22.80;99.90;;;;;;5069439;28;20051;-71
2022/08/12 07:37:46;;;;;;;6.45;3.15;;;23.00;99.90;;;;;;5070493;28;20033;-71
2022/08/12 07:40:12;;;;;;;5.53;3.38;;;24.40;99.90;;;;;;5056603;28;20119;-71
2022/08/12 07:42:42;;;;;;;6.50;2.92;;;23.30;99.90;;;;;;5049914;28;20040;-71
2022/08/12 07:45:09;;;;;;;11.45;3.60;;;23.40;99.90;;;;;;5054526;28;20456;-71
2022/08/12 07:47:35;;;;;;;5.40;3.03;;;23.40;99.90;;;;;;5068346;28;20045;-72
2022/08/12 07:50:03;;;;;;;7.80;3.20;;;23.50;99.90;;;;;;5070135;28;20599;-71
2022/08/12 07:52:29;;;;;;;5.25;3.10;;;23.60;99.90;;;;;;5057446;28;20067;-72
2022/08/12 07:54:54;;;;;;;5.20;3.10;;;23.70;99.90;;;;;;5068779;28;20502;-72
2022/08/12 07:57:20;;;;;;;10.93;3.03;;;23.70;99.90;;;;;;5069318;28;20039;-72
2022/08/12 07:59:46;;;;;;;4.53;2.92;;;23.90;99.90;;;;;;5062985;28;20032;-71
2022/08/12 08:02:11;;;;;;;6.20;3.60;;;24.00;99.90;;;;;;5069696;28;20041;-72
2022/08/12 08:04:55;;;;;;;5.45;3.55;;;24.50;99.90;;;;;;5069898;28;20044;-72
2022/08/12 08:07:23;;;;;;;4.53;3.38;;;24.00;99.90;;;;;;5069348;28;20082;-72
2022/08/12 08:09:48;;;;;;;5.43;3.00;;;24.20;99.90;;;;;;5061922;28;20094;-72
2022/08/12 08:14:59;;;;;;;4.93;2.42;;;24.60;99.90;;;;;;5050193;28;20045;-71
2022/08/12 08:17:25;;;;;;;6.05;2.97;;;24.60;99.90;;;;;;5049796;28;20036;-71
2022/08/12 08:19:54;;;;;;;5.30;3.13;;;24.90;99.90;;;;;;5049276;28;20041;-72
2022/08/12 08:22:20;;;;;;;3.92;2.50;;;24.80;99.90;;;;;;5054281;28;20052;-72
2022/08/12 08:24:50;;;;;;;7.90;3.15;;;25.00;99.90;;;;;;5052624;28;20091;-72
2022/08/12 08:27:15;;;;;;;3.63;2.15;;;25.20;99.90;;;;;;5049678;28;20413;-72
2022/08/12 08:29:44;;;;;;;6.93;2.67;;;25.00;99.90;;;;;;5070260;28;20058;-72
2022/08/12 08:32:11;;;;;;;5.95;2.53;;;25.20;99.90;;;;;;5071065;28;20120;-72
2022/08/12 08:34:37;;;;;;;3.30;2.20;;;25.60;99.90;;;;;;5069196;28;20094;-72
2022/08/12 08:37:03;;;;;;;3.65;2.28;;;25.20;99.90;;;;;;5068130;28;20040;-72
2022/08/12 08:39:30;;;;;;;3.72;1.92;;;25.40;99.90;;;;;;5071152;28;20431;-72
2022/08/12 08:44:41;;;;;;;4.95;2.20;;;25.50;99.90;;;;;;5060495;28;20063;-72
2022/08/12 08:47:08;;;;;;;5.80;2.58;;;25.70;99.90;;;;;;5053749;28;20048;-71
2022/08/12 08:49:35;;;;;;;6.13;2.15;;;26.10;99.90;;;;;;5071816;28;20086;-71
2022/08/12 08:52:02;;;;;;;5.72;2.05;;;25.80;99.90;;;;;;5073186;28;20048;-71
2022/08/12 08:54:32;;;;;;;5.10;2.90;;;26.30;99.70;;;;;;5061823;28;20083;-71
2022/08/12 08:57:00;;;;;;;3.78;2.03;;;26.10;99.90;;;;;;5038159;28;20419;-70
2022/08/12 08:59:26;;;;;;;5.07;2.63;;;26.20;99.30;;;;;;5056550;28;20383;-71
2022/08/12 09:01:52;;;;;;;4.72;2.00;;;26.40;99.00;;;;;;5071349;28;20048;-71
2022/08/12 09:04:23;;;;;;;5.28;2.45;;;26.40;99.80;;;;;;5072482;28;20044;-72
2022/08/12 09:06:57;;;;;;;6.00;2.35;;;27.00;99.90;;;;;;5071847;28;20044;-71
2022/08/12 09:09:23;;;;;;;4.97;2.40;;;26.50;98.60;;;;;;5061859;28;20033;-72
2022/08/12 09:14:32;;;;;;;4.50;2.20;;;27.10;98.30;;;;;;5059088;28;20128;-72
2022/08/12 09:16:58;;;;;;;6.82;2.40;;;27.00;98.90;;;;;;5053679;28;20120;-72
2022/08/12 09:19:25;;;;;;;4.85;2.28;;;27.10;98.60;;;;;;5050905;28;20059;-70
2022/08/12 09:21:51;;;;;;;3.30;1.80;;;27.20;98.70;;;;;;5071824;28;20055;-70
2022/08/12 09:24:20;;;;;;;3.85;2.20;;;27.10;98.40;;;;;;5068829;28;20048;-71
2022/08/12 09:26:47;;;;;;;5.65;2.17;;;27.20;97.50;;;;;;5067556;28;20441;-70
2022/08/12 09:29:20;;;;;;;3.97;2.10;;;27.40;98.00;;;;;;5072006;28;20040;-71
2022/08/12 09:31:51;;;;;;;4.95;2.22;;;;;;;;;;5071671;28;20498;-71
2022/08/12 09:34:19;;;;;;;9.07;2.33;;;27.60;99.90;;;;;;5073053;28;20037;-71
2022/08/12 09:36:45;;;;;;;3.83;2.25;;;;;;;;;;5066270;28;20029;-71
2022/08/12 09:39:12;;;;;;;4.80;2.15;;;27.70;95.60;;;;;;5051926;28;20045;-71
2022/08/12 09:41:42;;;;;;;3.92;2.42;;;27.80;95.90;;;;;;5052984;28;20045;-72
2022/08/12 09:46:53;;;;;;;5.38;2.30;;;28.00;95.90;;;;;;5071711;28;20048;-72
2022/08/12 09:49:20;;;;;;;3.38;2.08;;;28.00;95.60;;;;;;5071501;28;20383;-72
2022/08/12 09:51:47;;;;;;;3.08;2.20;;;27.90;95.20;;;;;;5071344;28;20083;-72
2022/08/12 09:54:15;;;;;;;5.53;2.10;;;28.00;95.20;;;;;;5071173;28;20044;-72
2022/08/12 09:56:42;;;;;;;3.75;2.40;;;28.10;94.80;;;;;;5072196;28;20075;-72
2022/08/12 09:59:09;;;;;;;6.63;2.42;;;;;;;;;;5072938;28;20094;-72
2022/08/12 10:01:39;;;;;;;4.50;2.42;;;28.30;94.90;;;;;;5066665;28;20043;-72
2022/08/12 10:04:09;;;;;;;7.40;2.70;;;28.50;94.40;;;;;;5051392;28;20033;-72
2022/08/12 10:06:38;;;;;;;3.08;1.73;;;28.80;94.60;;;;;;5051758;28;20080;-72
2022/08/12 10:09:06;;;;;;;5.68;2.15;;;28.70;95.00;;;;;;5060567;28;20080;-72
2022/08/12 10:14:17;;;;;;;5.03;2.33;;;28.70;93.80;;;;;;5059266;28;20048;-72
2022/08/12 10:16:43;;;;;;;3.38;2.10;;;28.60;94.00;;;;;;5055085;28;20372;-72
2022/08/12 10:19:09;;;;;;;4.03;2.20;;;28.80;94.20;;;;;;5052833;28;20073;-72
2022/08/12 10:21:37;;;;;;;6.25;2.38;;;28.60;94.40;;;;;;5070343;28;20044;-72
2022/08/12 10:24:06;;;;;;;3.67;2.13;;;29.20;94.00;;;;;;5070105;28;20118;-71
2022/08/12 10:32:02;;;;;;;4.28;2.30;;;29.30;94.50;;;;;;5052179;28;20041;-72
2022/08/12 10:34:28;;;;;;;6.93;2.15;;;28.90;94.00;;;;;;5048960;28;20055;-72
2022/08/12 10:37:00;;;;;;;3.38;1.88;;;29.20;94.10;;;;;;5070964;28;20040;-72
2022/08/12 10:39:36;;;;;;;3.92;2.30;;;29.20;93.60;;;;;;5071152;28;20056;-72
2022/08/12 10:44:52;;;;;;;7.53;2.13;;;29.00;93.80;;;;;;5071780;28;20183;-72
2022/08/12 10:47:20;;;;;;;6.07;2.33;;;;;;;;;;5058543;28;20068;-72
2022/08/12 10:49:49;;;;;;;4.90;2.25;;;;;;;;;;5069980;28;20037;-72
2022/08/12 10:52:15;;;;;;;2.83;2.08;;;29.30;92.50;;;;;;5062787;28;20032;-72
2022/08/12 10:54:41;;;;;;;5.15;2.30;;;29.70;92.80;;;;;;5070518;28;20059;-73
2022/08/12 10:57:07;;;;;;;3.58;2.08;;;29.60;92.70;;;;;;5065230;28;20582;-72
2022/08/12 10:59:33;;;;;;;3.75;2.10;;;29.70;92.50;;;;;;5051150;28;20384;-73
2022/08/12 11:02:00;;;;;;;3.67;1.90;;;30.40;92.80;;;;;;5048166;28;20047;-72
2022/08/12 11:04:29;;;;;;;4.88;2.10;;;29.70;92.40;;;;;;5048878;28;20041;-73
2022/08/12 11:06:56;;;;;;;3.33;2.00;;;29.50;92.10;;;;;;5051623;28;20037;-73
2022/08/12 11:09:24;;;;;;;5.25;2.05;;;29.40;92.30;;;;;;5050669;28;20072;-73
2022/08/12 11:11:50;;;;;;;3.35;1.90;;;29.70;92.30;;;;;;5051083;28;20040;-73
2022/08/12 11:14:30;;;;;;;4.13;2.20;;;29.70;91.80;;;;;;5074490;28;20044;-73
2022/08/12 11:16:56;;;;;;;4.80;2.17;;;29.80;91.70;;;;;;5056649;28;20046;-72
2022/08/12 11:19:31;;;;;;;5.30;2.33;;;30.00;91.70;;;;;;5067549;28;20036;-72
2022/08/12 11:21:58;;;;;;;7.15;2.35;;;29.90;91.10;;;;;;5060538;28;20449;-71
2022/08/12 11:24:24;;;;;;;2.75;1.90;;;30.10;91.30;;;;;;5056370;28;20053;-71
2022/08/12 11:26:54;;;;;;;4.05;2.00;;;30.10;91.60;;;;;;5063256;28;20048;-71
2022/08/12 11:29:21;;;;;;;3.72;2.00;;;30.20;91.00;;;;;;5064289;28;20056;-71
2022/08/12 11:31:47;;;;;;;4.28;1.92;;;30.00;91.50;;;;;;5078393;28;20038;-72
2022/08/12 11:34:15;;;;;;;2.45;1.95;;;30.00;91.40;;;;;;5060357;28;20045;-72
2022/08/12 11:36:55;;;;;;;4.07;2.08;;;30.20;91.40;;;;;;5070590;28;20037;-73
2022/08/12 11:39:21;;;;;;;6.72;1.83;;;30.40;90.80;;;;;;5073484;28;20115;-73
2022/08/12 11:41:47;;;;;;;6.95;2.45;;;30.30;91.30;;;;;;5052198;28;20033;-72
2022/08/12 11:44:13;;;;;;;4.03;2.03;;;30.20;90.90;;;;;;5049099;28;20094;-72
2022/08/12 11:46:40;;;;;;;3.03;2.03;;;30.30;91.30;;;;;;5067685;28;20162;-72
2022/08/12 11:49:06;;;;;;;4.60;1.80;;;30.20;91.40;;;;;;5069729;28;20044;-72
2022/08/12 11:51:33;;;;;;;3.92;2.10;;;30.10;92.00;;;;;;5069094;28;20036;-72
2022/08/12 11:53:58;;;;;;;4.63;2.10;;;32.10;91.90;;;;;;5045639;28;20079;-72
2022/08/12 11:56:24;;;;;;;11.60;2.85;;;30.70;91.00;;;;;;5064179;28;20068;-72
2022/08/12 11:58:50;;;;;;;8.35;2.33;;;30.60;91.00;;;;;;5051940;28;20051;-72
2022/08/12 12:01:16;;;;;;;5.43;2.30;;;30.50;91.40;;;;;;5069689;28;20039;-72
2022/08/12 12:03:42;;;;;;;2.45;1.98;;;30.30;91.80;;;;;;5052697;28;20108;-72
2022/08/12 12:06:08;;;;;;;2.33;1.80;;;31.00;91.40;;;;;;5068326;28;20171;-72
2022/08/12 12:08:33;;;;;;;3.97;2.00;;;30.60;91.60;;;;;;5072772;28;20071;-73
2022/08/12 12:10:59;;;;;;;4.30;1.95;;;30.70;90.70;;;;;;5063957;28;20578;-72
2022/08/12 12:13:25;;;;;;;3.63;1.67;;;30.50;90.40;;;;;;5054569;28;20037;-72
2022/08/12 12:15:51;;;;;;;4.20;2.03;;;30.60;90.10;;;;;;5068499;28;20086;-72
2022/08/12 12:18:27;;;;;;;3.08;1.85;;;30.80;90.70;;;;;;5074816;28;20033;-72
2022/08/12 12:20:56;;;;;;;3.25;2.08;;;30.60;90.00;;;;;;5073170;28;20509;-72
2022/08/12 12:23:22;;;;;;;5.15;2.20;;;30.70;91.00;;;;;;5072929;28;20570;-72
2022/08/12 12:25:48;;;;;;;3.00;1.85;;;31.30;90.90;;;;;;5074249;28;20052;-72
2022/08/12 12:28:15;;;;;;;6.53;2.20;;;30.50;90.50;;;;;;5071981;28;20055;-72
2022/08/12 12:30:40;;;;;;;4.95;1.88;;;30.90;90.80;;;;;;5074292;28;20040;-73
2022/08/12 12:33:08;;;;;;;2.50;2.10;;;31.00;90.60;;;;;;5073893;28;20028;-73
2022/08/12 12:35:34;;;;;;;6.43;1.83;;;31.50;91.50;;;;;;5063449;28;20117;-72
2022/08/12 12:38:02;;;;;;;3.10;1.88;;;30.90;91.40;;;;;;5072205;28;20040;-72
2022/08/12 12:40:29;;;;;;;5.13;1.80;;;31.00;91.20;;;;;;5072071;28;20041;-72
2022/08/12 12:42:55;;;;;;;4.45;1.75;;;30.60;90.80;;;;;;5073501;28;20044;-72
2022/08/12 12:45:21;;;;;;;2.80;1.55;;;31.10;91.20;;;;;;5073234;28;20033;-72
2022/08/12 12:48:00;;;;;;;5.22;1.90;;;31.00;90.70;;;;;;5072137;28;20036;-72
2022/08/12 12:50:28;;;;;;;4.35;1.98;;;30.90;90.60;;;;;;5072561;28;20036;-72
2022/08/12 12:52:54;;;;;;;3.88;1.60;;;31.20;90.90;;;;;;5054980;28;20047;-73
2022/08/12 12:55:21;;;;;;;2.30;1.77;;;31.00;91.80;;;;;;5058673;28;20037;-72
2022/08/12 12:57:47;;;;;;;2.90;1.40;;;31.30;91.10;;;;;;5052936;28;20048;-72
2022/08/12 13:00:15;;;;;;;3.25;2.25;;;31.40;91.00;;;;;;5067091;28;20480;-72
2022/08/12 13:02:51;;;;;;;3.10;1.63;;;31.10;90.70;;;;;;5059575;28;20045;-72
2022/08/12 13:05:30;;;;;;;3.50;1.75;;;31.20;90.90;;;;;;5052293;28;20055;-72
2022/08/12 13:07:58;;;;;;;4.00;2.00;;;31.20;90.10;;;;;;5060359;28;20056;-71
2022/08/12 13:10:24;;;;;;;5.57;2.08;;;31.20;90.70;;;;;;5053729;28;20045;-72
2022/08/12 13:12:51;;;;;;;1.85;1.67;;;31.40;90.70;;;;;;5052257;28;20473;-71
2022/08/12 13:15:17;;;;;;;4.22;1.88;;;31.30;90.60;;;;;;5050651;28;20041;-71
2022/08/12 13:17:48;;;;;;;4.28;2.15;;;31.10;90.50;;;;;;5058560;28;20448;-71
2022/08/12 13:20:18;;;;;;;2.47;1.77;;;31.30;90.30;;;;;;5063237;28;20047;-71
2022/08/12 13:22:45;;;;;;;1.67;1.58;;;31.30;89.60;;;;;;5064271;28;20033;-71
2022/08/12 13:25:13;;;;;;;5.40;1.83;;;31.20;89.50;;;;;;5068943;28;20036;-71
2022/08/12 13:27:48;;;;;;;4.40;1.90;;;32.80;89.70;;;;;;5069031;28;20040;-71
2022/08/12 13:30:19;;;;;;;4.25;2.17;;;31.50;88.00;;;;;;5065554;28;20044;-71
2022/08/12 13:32:53;;;;;;;4.85;1.50;;;31.60;88.40;;;;;;5064212;28;20032;-71
2022/08/12 13:35:19;;;;;;;5.13;1.77;;;31.70;88.80;;;;;;5058534;28;20082;-71
2022/08/12 13:37:52;;;;;;;5.68;1.80;;;31.40;87.90;;;;;;5051972;28;20033;-71
2022/08/12 13:40:21;;;;;;;6.15;1.67;;;31.30;89.30;;;;;;5053459;28;20041;-71
2022/08/12 13:42:47;;;;;;;5.85;1.40;;;31.60;89.40;;;;;;5053117;28;20037;-71
2022/08/12 13:45:14;;;;;;;3.55;1.60;;;31.70;89.40;;;;;;5051594;28;20138;-71
2022/08/12 13:48:16;;;;;;;3.42;1.60;;;31.60;88.20;;;;;;5053532;28;20037;-71
2022/08/12 13:50:42;;;;;;;7.50;1.80;;;31.80;88.80;;;;;;5048190;28;20537;-71
2022/08/12 13:53:13;;;;;;;5.57;2.00;;;32.20;89.50;;;;;;5051749;28;20033;-71
2022/08/12 13:55:44;;;;;;;3.83;1.85;;;31.50;88.50;;;;;;5034887;28;20073;-72
2022/08/12 13:58:11;;;;;;;4.53;1.55;;;31.50;88.80;;;;;;5051755;28;20055;-72
2022/08/12 14:00:37;;;;;;;5.47;2.00;;;31.60;89.60;;;;;;5052823;28;20041;-72
2022/08/12 14:03:03;;;;;;;2.83;1.80;;;31.30;89.20;;;;;;5052881;28;20394;-73
2022/08/12 14:05:29;;;;;;;5.53;1.75;;;31.50;89.90;;;;;;5061697;28;20037;-71
2022/08/12 14:08:00;;;;;;;5.18;1.70;;;31.00;88.80;;;;;;5054046;28;20047;-72
2022/08/12 14:10:35;;;;;;;4.67;1.83;;;31.60;89.70;;;;;;5057314;28;20029;-72
2022/08/12 14:13:04;;;;;;;1.90;1.42;;;31.30;89.60;;;;;;5051443;28;20146;-72
2022/08/12 14:15:30;;;;;;;4.13;1.48;;;31.60;90.30;;;;;;5051007;28;20051;-71
2022/08/12 14:18:07;;;;;;;7.88;1.83;;;31.40;90.60;;;;;;5051566;28;20043;-72
2022/08/12 14:20:33;;;;;;;2.53;1.50;;;31.60;90.20;;;;;;5051509;28;20041;-72
2022/08/12 14:22:59;;;;;;;4.90;1.73;;;31.80;91.00;;;;;;5056225;28;20033;-73
2022/08/12 14:25:27;;;;;;;9.70;2.45;;;31.70;90.30;;;;;;5072223;28;20051;-72
2022/08/12 14:27:54;;;;;;;5.47;1.98;;;31.50;90.10;;;;;;5054439;28;20501;-72
2022/08/12 14:30:20;;;;;;;10.02;2.08;;;31.40;91.20;;;;;;5071659;28;20178;-72
2022/08/12 14:32:46;;;;;;;7.03;2.30;;;31.30;91.40;;;;;;5070921;28;20040;-72
2022/08/12 14:35:11;;;;;;;3.03;1.58;;;31.30;91.70;;;;;;5072183;28;20056;-71
2022/08/12 14:37:38;;;;;;;3.05;2.10;;;31.00;91.60;;;;;;5054072;28;20032;-71
2022/08/12 14:40:04;;;;;;;3.33;2.10;;;33.30;92.60;;;;;;5045977;28;20041;-72
2022/08/12 14:42:30;;;;;;;6.45;1.88;;;31.00;91.50;;;;;;5052086;28;20090;-72
2022/08/12 14:44:56;;;;;;;4.97;1.80;;;31.20;92.10;;;;;;5050781;28;20041;-71